Air Resources Laboratory banner image
Air Resources Laboratory web site National Oceanic and Atmospheric Administration (NOAA)

me metar


K40B 170616Z AUTO 00000KT 13/ A3016 RMK AO1 SLP206 T0132 10185 20131 50001
 60000=
K8B0 170635Z AUTO 09004KT 10SM CLR 14/13 A3014 RMK AO2=
KAUG 170553Z AUTO 02004KT 10SM CLR 18/16 A3006 RMK AO2 SLP179 T01830161 10194
 20183 56008=
KBGR 170553Z 03007KT 10SM SCT130 BKN250 19/14 A3006 RMK AO2 SLP174 60000
 T01890144 10217 20189 58009=
KBHB 170556Z AUTO 04008KT 10SM CLR 21/12 A3004 RMK AO2 SLP174 T02060122 10222
 20200 58006 $=
KFVE 170553Z AUTO 36005KT 10SM CLR 16/13 A3018 RMK AO2 SLP214 T01610128 10222
 20161 58002=
KGNR 170556Z AUTO 08005KT 19/12 A3011 RMK AO1 SLP192 T01890122 10206 20183
 58004=
KHUL 170553Z AUTO 35003KT 10SM CLR 15/14 A3012 RMK AO2 SLP197 T01500139 10200
 20144 58002=
KIWI 170553Z AUTO 00000KT 10SM CLR 18/14 A3004 RMK AO2 SLP171 T01830144 10222
 20183 58010=
KLEW 170556Z AUTO 01004KT 10SM FEW055 18/17 A3005 RMK AO2 SLP181 60000
 T01780167 10194 20172 58010=
KMLT 170553Z AUTO 00000KT 10SM CLR 18/16 A3012 RMK AO2 SLP202 T01780156 10222
 20172 58003=
KPQI 170556Z AUTO 33003KT 10SM CLR 14/14 A3016 RMK AO2 SLP235 T01440139 10206
 20133 58003=
KPWM 170551Z AUTO 34007KT 10SM SCT065 19/16 A3003 RMK AO2 SLP167 T01940156
 10211 20194 58010=
KRKD 170556Z AUTO 03005KT 10SM CLR 20/16 A3003 RMK AO2 SLP169 T02000156 10211
 20178 58009=
KSFM 170556Z AUTO 35005KT 10SM CLR 19/16 A3003 RMK AO2 SLP170 T01940156 10194
 20161 58011=
KWVL 170556Z AUTO 02007KT 10SM SCT110 18/15 A3004 RMK AO2 SLP198 60000
 T01830150 10206 20178 58008=